sensor_id;sensor_type;location;lat;lon;timestamp;P1;durP1;ratioP1;P2;durP2;ratioP2
58928;SDS011;44713;53.378;10.022;2023-04-24T00:00:03;4.93;;;4.50;;
58928;SDS011;44713;53.378;10.022;2023-04-24T00:02:34;6.22;;;4.50;;
58928;SDS011;44713;53.378;10.022;2023-04-24T00:04:59;4.90;;;4.40;;
58928;SDS011;44713;53.378;10.022;2023-04-24T00:07:28;5.30;;;4.80;;
58928;SDS011;44713;53.378;10.022;2023-04-24T00:09:54;5.45;;;4.32;;
58928;SDS011;44713;53.378;10.022;2023-04-24T00:12:19;5.75;;;4.38;;
58928;SDS011;44713;53.378;10.022;2023-04-24T00:14:45;4.78;;;4.38;;
58928;SDS011;44713;53.378;10.022;2023-04-24T00:17:10;5.45;;;4.15;;
58928;SDS011;44713;53.378;10.022;2023-04-24T00:19:35;5.50;;;4.85;;
58928;SDS011;44713;53.378;10.022;2023-04-24T00:22:01;7.35;;;4.57;;
58928;SDS011;44713;53.378;10.022;2023-04-24T00:24:27;5.95;;;5.10;;
58928;SDS011;44713;53.378;10.022;2023-04-24T00:26:52;5.82;;;4.85;;
58928;SDS011;44713;53.378;10.022;2023-04-24T00:29:18;5.18;;;4.68;;
58928;SDS011;44713;53.378;10.022;2023-04-24T00:31:43;5.20;;;4.80;;
58928;SDS011;44713;53.378;10.022;2023-04-24T00:34:09;6.78;;;4.70;;
58928;SDS011;44713;53.378;10.022;2023-04-24T00:36:35;5.43;;;4.93;;
58928;SDS011;44713;53.378;10.022;2023-04-24T00:39:00;6.63;;;4.97;;
58928;SDS011;44713;53.378;10.022;2023-04-24T00:41:26;5.05;;;4.60;;
58928;SDS011;44713;53.378;10.022;2023-04-24T00:43:52;6.03;;;5.13;;
58928;SDS011;44713;53.378;10.022;2023-04-24T00:46:18;5.50;;;5.00;;
58928;SDS011;44713;53.378;10.022;2023-04-24T00:48:44;5.80;;;4.45;;
58928;SDS011;44713;53.378;10.022;2023-04-24T00:51:09;4.97;;;4.43;;
58928;SDS011;44713;53.378;10.022;2023-04-24T00:53:35;5.47;;;4.40;;
58928;SDS011;44713;53.378;10.022;2023-04-24T00:56:01;5.50;;;4.60;;
58928;SDS011;44713;53.378;10.022;2023-04-24T00:58:27;4.88;;;4.35;;
58928;SDS011;44713;53.378;10.022;2023-04-24T01:00:53;5.65;;;4.80;;
58928;SDS011;44713;53.378;10.022;2023-04-24T01:03:20;5.72;;;4.70;;
58928;SDS011;44713;53.378;10.022;2023-04-24T01:05:49;4.65;;;4.25;;
58928;SDS011;44713;53.378;10.022;2023-04-24T01:08:14;4.47;;;4.07;;
58928;SDS011;44713;53.378;10.022;2023-04-24T01:10:40;3.90;;;3.60;;
58928;SDS011;44713;53.378;10.022;2023-04-24T01:13:07;4.32;;;3.80;;
58928;SDS011;44713;53.378;10.022;2023-04-24T01:15:34;4.00;;;3.70;;
58928;SDS011;44713;53.378;10.022;2023-04-24T01:17:59;4.30;;;3.90;;
58928;SDS011;44713;53.378;10.022;2023-04-24T01:20:25;4.07;;;3.75;;
58928;SDS011;44713;53.378;10.022;2023-04-24T01:22:51;4.50;;;4.10;;
58928;SDS011;44713;53.378;10.022;2023-04-24T01:25:17;5.13;;;3.72;;
58928;SDS011;44713;53.378;10.022;2023-04-24T01:27:42;3.67;;;3.22;;
58928;SDS011;44713;53.378;10.022;2023-04-24T01:30:08;3.88;;;3.25;;
58928;SDS011;44713;53.378;10.022;2023-04-24T01:32:34;4.82;;;3.30;;
58928;SDS011;44713;53.378;10.022;2023-04-24T01:35:01;3.25;;;2.95;;
58928;SDS011;44713;53.378;10.022;2023-04-24T01:37:27;4.00;;;3.00;;
58928;SDS011;44713;53.378;10.022;2023-04-24T01:39:52;3.10;;;2.80;;
58928;SDS011;44713;53.378;10.022;2023-04-24T01:42:18;4.72;;;2.95;;
58928;SDS011;44713;53.378;10.022;2023-04-24T01:44:46;3.10;;;2.80;;
58928;SDS011;44713;53.378;10.022;2023-04-24T01:47:12;3.42;;;2.97;;
58928;SDS011;44713;53.378;10.022;2023-04-24T01:49:38;3.30;;;2.63;;
58928;SDS011;44713;53.378;10.022;2023-04-24T01:52:04;3.05;;;2.75;;
58928;SDS011;44713;53.378;10.022;2023-04-24T01:54:29;2.58;;;2.28;;
58928;SDS011;44713;53.378;10.022;2023-04-24T01:56:55;3.20;;;2.70;;
58928;SDS011;44713;53.378;10.022;2023-04-24T01:59:20;2.70;;;2.38;;
58928;SDS011;44713;53.378;10.022;2023-04-24T02:01:48;3.08;;;2.30;;
58928;SDS011;44713;53.378;10.022;2023-04-24T02:04:13;2.50;;;2.30;;
58928;SDS011;44713;53.378;10.022;2023-04-24T02:06:40;4.43;;;2.28;;
58928;SDS011;44713;53.378;10.022;2023-04-24T02:09:06;2.17;;;1.98;;
58928;SDS011;44713;53.378;10.022;2023-04-24T02:11:31;3.97;;;2.25;;
58928;SDS011;44713;53.378;10.022;2023-04-24T02:13:57;3.35;;;2.88;;
58928;SDS011;44713;53.378;10.022;2023-04-24T02:16:22;4.18;;;2.40;;
58928;SDS011;44713;53.378;10.022;2023-04-24T02:18:49;2.20;;;2.00;;
58928;SDS011;44713;53.378;10.022;2023-04-24T02:21:16;1.88;;;1.50;;
58928;SDS011;44713;53.378;10.022;2023-04-24T02:23:41;2.13;;;1.95;;
58928;SDS011;44713;53.378;10.022;2023-04-24T02:26:07;1.58;;;1.45;;
58928;SDS011;44713;53.378;10.022;2023-04-24T02:28:32;2.63;;;1.73;;
58928;SDS011;44713;53.378;10.022;2023-04-24T02:30:57;1.80;;;1.55;;
58928;SDS011;44713;53.378;10.022;2023-04-24T02:33:23;1.92;;;1.67;;
58928;SDS011;44713;53.378;10.022;2023-04-24T02:35:49;2.72;;;1.73;;
58928;SDS011;44713;53.378;10.022;2023-04-24T02:38:14;3.42;;;1.50;;
58928;SDS011;44713;53.378;10.022;2023-04-24T02:40:42;1.90;;;1.63;;
58928;SDS011;44713;53.378;10.022;2023-04-24T02:43:09;1.77;;;1.35;;
58928;SDS011;44713;53.378;10.022;2023-04-24T02:45:34;1.60;;;1.42;;
58928;SDS011;44713;53.378;10.022;2023-04-24T02:47:59;2.35;;;1.60;;
58928;SDS011;44713;53.378;10.022;2023-04-24T02:50:25;2.63;;;1.50;;
58928;SDS011;44713;53.378;10.022;2023-04-24T02:52:50;1.80;;;1.70;;
58928;SDS011;44713;53.378;10.022;2023-04-24T02:55:16;1.80;;;1.42;;
58928;SDS011;44713;53.378;10.022;2023-04-24T02:57:41;1.77;;;1.17;;
58928;SDS011;44713;53.378;10.022;2023-04-24T03:00:07;1.30;;;1.20;;
58928;SDS011;44713;53.378;10.022;2023-04-24T03:02:34;2.38;;;1.50;;
58928;SDS011;44713;53.378;10.022;2023-04-24T03:04:59;1.45;;;1.35;;
58928;SDS011;44713;53.378;10.022;2023-04-24T03:07:24;2.40;;;1.40;;
58928;SDS011;44713;53.378;10.022;2023-04-24T03:09:50;2.58;;;1.25;;
58928;SDS011;44713;53.378;10.022;2023-04-24T03:12:15;1.40;;;1.30;;
58928;SDS011;44713;53.378;10.022;2023-04-24T03:14:42;1.10;;;1.00;;
58928;SDS011;44713;53.378;10.022;2023-04-24T03:17:08;1.83;;;1.10;;
58928;SDS011;44713;53.378;10.022;2023-04-24T03:19:33;1.30;;;1.08;;
58928;SDS011;44713;53.378;10.022;2023-04-24T03:22:04;1.27;;;1.17;;
58928;SDS011;44713;53.378;10.022;2023-04-24T03:24:30;1.20;;;1.10;;
58928;SDS011;44713;53.378;10.022;2023-04-24T03:26:56;1.25;;;1.15;;
58928;SDS011;44713;53.378;10.022;2023-04-24T03:32:06;1.30;;;1.20;;
58928;SDS011;44713;53.378;10.022;2023-04-24T03:34:32;2.90;;;1.10;;
58928;SDS011;44713;53.378;10.022;2023-04-24T03:36:57;1.83;;;1.02;;
58928;SDS011;44713;53.378;10.022;2023-04-24T03:39:23;1.40;;;1.30;;
58928;SDS011;44713;53.378;10.022;2023-04-24T03:41:53;1.25;;;1.08;;
58928;SDS011;44713;53.378;10.022;2023-04-24T03:44:23;1.05;;;0.95;;
58928;SDS011;44713;53.378;10.022;2023-04-24T03:46:49;1.10;;;1.00;;
58928;SDS011;44713;53.378;10.022;2023-04-24T03:49:15;4.10;;;1.10;;
58928;SDS011;44713;53.378;10.022;2023-04-24T03:51:43;1.20;;;1.08;;
58928;SDS011;44713;53.378;10.022;2023-04-24T03:54:22;2.05;;;0.90;;
58928;SDS011;44713;53.378;10.022;2023-04-24T03:56:49;1.27;;;1.10;;
58928;SDS011;44713;53.378;10.022;2023-04-24T03:59:15;2.58;;;1.20;;
58928;SDS011;44713;53.378;10.022;2023-04-24T04:01:44;2.42;;;1.13;;
58928;SDS011;44713;53.378;10.022;2023-04-24T04:04:13;2.85;;;1.58;;
58928;SDS011;44713;53.378;10.022;2023-04-24T04:06:39;3.72;;;1.17;;
58928;SDS011;44713;53.378;10.022;2023-04-24T04:09:05;2.28;;;1.05;;
58928;SDS011;44713;53.378;10.022;2023-04-24T04:11:32;1.50;;;1.00;;
58928;SDS011;44713;53.378;10.022;2023-04-24T04:13:57;4.00;;;0.98;;
58928;SDS011;44713;53.378;10.022;2023-04-24T04:16:23;0.80;;;0.77;;
58928;SDS011;44713;53.378;10.022;2023-04-24T04:18:53;3.40;;;1.00;;
58928;SDS011;44713;53.378;10.022;2023-04-24T04:21:19;0.82;;;0.80;;
58928;SDS011;44713;53.378;10.022;2023-04-24T04:23:45;1.50;;;0.77;;
58928;SDS011;44713;53.378;10.022;2023-04-24T04:26:26;2.92;;;1.00;;
58928;SDS011;44713;53.378;10.022;2023-04-24T04:29:07;1.65;;;0.90;;
58928;SDS011;44713;53.378;10.022;2023-04-24T04:31:35;2.25;;;0.68;;
58928;SDS011;44713;53.378;10.022;2023-04-24T04:34:06;0.80;;;0.80;;
58928;SDS011;44713;53.378;10.022;2023-04-24T04:36:33;1.50;;;0.90;;
58928;SDS011;44713;53.378;10.022;2023-04-24T04:39:07;1.08;;;0.80;;
58928;SDS011;44713;53.378;10.022;2023-04-24T04:41:50;0.85;;;0.85;;
58928;SDS011;44713;53.378;10.022;2023-04-24T04:44:17;1.00;;;0.75;;
58928;SDS011;44713;53.378;10.022;2023-04-24T04:46:43;2.88;;;0.90;;
58928;SDS011;44713;53.378;10.022;2023-04-24T04:49:20;0.80;;;0.80;;
58928;SDS011;44713;53.378;10.022;2023-04-24T04:51:46;0.98;;;0.80;;
58928;SDS011;44713;53.378;10.022;2023-04-24T04:54:12;4.00;;;0.80;;
58928;SDS011;44713;53.378;10.022;2023-04-24T04:56:38;0.98;;;0.70;;
58928;SDS011;44713;53.378;10.022;2023-04-24T04:59:03;0.73;;;0.68;;
58928;SDS011;44713;53.378;10.022;2023-04-24T05:01:29;1.80;;;0.70;;
58928;SDS011;44713;53.378;10.022;2023-04-24T05:03:55;0.60;;;0.60;;
58928;SDS011;44713;53.378;10.022;2023-04-24T05:06:20;1.10;;;0.63;;
58928;SDS011;44713;53.378;10.022;2023-04-24T05:08:46;0.75;;;0.70;;
58928;SDS011;44713;53.378;10.022;2023-04-24T05:11:23;1.35;;;0.70;;
58928;SDS011;44713;53.378;10.022;2023-04-24T05:13:48;0.52;;;0.52;;
58928;SDS011;44713;53.378;10.022;2023-04-24T05:16:18;2.72;;;0.90;;
58928;SDS011;44713;53.378;10.022;2023-04-24T05:18:43;1.35;;;0.55;;
58928;SDS011;44713;53.378;10.022;2023-04-24T05:21:12;0.98;;;0.55;;
58928;SDS011;44713;53.378;10.022;2023-04-24T05:23:40;1.05;;;0.55;;
58928;SDS011;44713;53.378;10.022;2023-04-24T05:26:05;0.57;;;0.57;;
58928;SDS011;44713;53.378;10.022;2023-04-24T05:28:31;1.27;;;0.60;;
58928;SDS011;44713;53.378;10.022;2023-04-24T05:31:05;0.55;;;0.52;;
58928;SDS011;44713;53.378;10.022;2023-04-24T05:33:31;1.75;;;0.60;;
58928;SDS011;44713;53.378;10.022;2023-04-24T05:35:57;0.82;;;0.60;;
58928;SDS011;44713;53.378;10.022;2023-04-24T05:38:23;0.80;;;0.60;;
58928;SDS011;44713;53.378;10.022;2023-04-24T05:40:48;1.15;;;0.75;;
58928;SDS011;44713;53.378;10.022;2023-04-24T05:43:13;2.60;;;0.70;;
58928;SDS011;44713;53.378;10.022;2023-04-24T05:45:39;1.40;;;0.77;;
58928;SDS011;44713;53.378;10.022;2023-04-24T05:48:05;1.45;;;0.93;;
58928;SDS011;44713;53.378;10.022;2023-04-24T05:50:31;0.80;;;0.77;;
58928;SDS011;44713;53.378;10.022;2023-04-24T05:52:57;1.60;;;0.88;;
58928;SDS011;44713;53.378;10.022;2023-04-24T05:55:31;3.65;;;0.90;;
58928;SDS011;44713;53.378;10.022;2023-04-24T05:57:57;1.55;;;0.88;;
58928;SDS011;44713;53.378;10.022;2023-04-24T06:00:24;2.55;;;0.90;;
58928;SDS011;44713;53.378;10.022;2023-04-24T06:05:23;2.33;;;1.05;;
58928;SDS011;44713;53.378;10.022;2023-04-24T06:07:51;1.10;;;1.00;;
58928;SDS011;44713;53.378;10.022;2023-04-24T06:10:18;1.20;;;1.10;;
58928;SDS011;44713;53.378;10.022;2023-04-24T06:12:44;4.65;;;1.38;;
58928;SDS011;44713;53.378;10.022;2023-04-24T06:15:15;1.88;;;1.50;;
58928;SDS011;44713;53.378;10.022;2023-04-24T06:17:56;1.35;;;1.20;;
58928;SDS011;44713;53.378;10.022;2023-04-24T06:20:22;1.73;;;1.30;;
58928;SDS011;44713;53.378;10.022;2023-04-24T06:22:48;1.58;;;1.20;;
58928;SDS011;44713;53.378;10.022;2023-04-24T06:25:13;2.88;;;1.60;;
58928;SDS011;44713;53.378;10.022;2023-04-24T06:27:49;2.33;;;1.40;;
58928;SDS011;44713;53.378;10.022;2023-04-24T06:30:15;1.63;;;1.42;;
58928;SDS011;44713;53.378;10.022;2023-04-24T06:32:40;2.58;;;1.35;;
58928;SDS011;44713;53.378;10.022;2023-04-24T06:35:05;1.70;;;1.10;;
58928;SDS011;44713;53.378;10.022;2023-04-24T06:37:33;1.38;;;1.25;;
58928;SDS011;44713;53.378;10.022;2023-04-24T06:40:01;4.22;;;1.90;;
58928;SDS011;44713;53.378;10.022;2023-04-24T06:42:27;2.60;;;1.50;;
58928;SDS011;44713;53.378;10.022;2023-04-24T06:44:54;2.60;;;1.70;;
58928;SDS011;44713;53.378;10.022;2023-04-24T06:47:19;1.85;;;1.50;;
58928;SDS011;44713;53.378;10.022;2023-04-24T06:49:45;1.60;;;1.48;;
58928;SDS011;44713;53.378;10.022;2023-04-24T06:52:10;3.10;;;1.70;;
58928;SDS011;44713;53.378;10.022;2023-04-24T06:54:35;3.53;;;2.00;;
58928;SDS011;44713;53.378;10.022;2023-04-24T06:57:01;2.63;;;1.90;;
58928;SDS011;44713;53.378;10.022;2023-04-24T06:59:27;2.47;;;2.28;;
58928;SDS011;44713;53.378;10.022;2023-04-24T07:01:53;2.70;;;2.50;;
58928;SDS011;44713;53.378;10.022;2023-04-24T07:04:18;2.40;;;2.10;;
58928;SDS011;44713;53.378;10.022;2023-04-24T07:06:47;5.50;;;2.47;;
58928;SDS011;44713;53.378;10.022;2023-04-24T07:09:14;3.35;;;2.70;;
58928;SDS011;44713;53.378;10.022;2023-04-24T07:11:40;2.88;;;2.15;;
58928;SDS011;44713;53.378;10.022;2023-04-24T07:14:06;4.25;;;2.58;;
58928;SDS011;44713;53.378;10.022;2023-04-24T07:16:32;3.75;;;2.60;;
58928;SDS011;44713;53.378;10.022;2023-04-24T07:18:58;4.10;;;2.58;;
58928;SDS011;44713;53.378;10.022;2023-04-24T07:21:23;3.67;;;2.42;;
58928;SDS011;44713;53.378;10.022;2023-04-24T07:23:48;3.03;;;2.83;;
58928;SDS011;44713;53.378;10.022;2023-04-24T07:26:14;2.70;;;2.33;;
58928;SDS011;44713;53.378;10.022;2023-04-24T07:28:40;3.10;;;2.80;;
58928;SDS011;44713;53.378;10.022;2023-04-24T07:31:05;3.50;;;2.75;;
58928;SDS011;44713;53.378;10.022;2023-04-24T07:33:31;3.47;;;2.58;;
58928;SDS011;44713;53.378;10.022;2023-04-24T07:35:57;4.20;;;2.78;;
58928;SDS011;44713;53.378;10.022;2023-04-24T07:38:22;3.17;;;2.88;;
58928;SDS011;44713;53.378;10.022;2023-04-24T07:40:48;2.70;;;2.50;;
58928;SDS011;44713;53.378;10.022;2023-04-24T07:43:14;2.83;;;2.50;;
58928;SDS011;44713;53.378;10.022;2023-04-24T07:45:39;3.95;;;3.08;;
58928;SDS011;44713;53.378;10.022;2023-04-24T07:48:05;3.00;;;2.80;;
58928;SDS011;44713;53.378;10.022;2023-04-24T07:50:31;3.03;;;2.40;;
58928;SDS011;44713;53.378;10.022;2023-04-24T07:52:57;3.17;;;2.42;;
58928;SDS011;44713;53.378;10.022;2023-04-24T07:55:22;4.03;;;3.05;;
58928;SDS011;44713;53.378;10.022;2023-04-24T07:57:48;3.58;;;3.13;;
58928;SDS011;44713;53.378;10.022;2023-04-24T08:00:13;3.90;;;3.38;;
58928;SDS011;44713;53.378;10.022;2023-04-24T08:02:39;4.68;;;3.67;;
58928;SDS011;44713;53.378;10.022;2023-04-24T08:05:05;4.63;;;4.22;;
58928;SDS011;44713;53.378;10.022;2023-04-24T08:07:31;7.32;;;4.80;;
58928;SDS011;44713;53.378;10.022;2023-04-24T08:09:57;5.47;;;4.97;;
58928;SDS011;44713;53.378;10.022;2023-04-24T08:12:24;5.38;;;4.80;;
58928;SDS011;44713;53.378;10.022;2023-04-24T08:14:49;6.38;;;5.30;;
58928;SDS011;44713;53.378;10.022;2023-04-24T08:17:16;5.65;;;4.50;;
58928;SDS011;44713;53.378;10.022;2023-04-24T08:19:42;4.70;;;4.30;;
58928;SDS011;44713;53.378;10.022;2023-04-24T08:22:12;6.97;;;5.18;;
58928;SDS011;44713;53.378;10.022;2023-04-24T08:24:37;5.85;;;5.35;;
58928;SDS011;44713;53.378;10.022;2023-04-24T08:27:03;5.65;;;5.13;;
58928;SDS011;44713;53.378;10.022;2023-04-24T08:29:28;4.97;;;4.57;;
58928;SDS011;44713;53.378;10.022;2023-04-24T08:31:54;6.82;;;5.43;;
58928;SDS011;44713;53.378;10.022;2023-04-24T08:34:20;5.88;;;5.32;;
58928;SDS011;44713;53.378;10.022;2023-04-24T08:36:46;8.15;;;5.60;;
58928;SDS011;44713;53.378;10.022;2023-04-24T08:39:11;6.80;;;5.10;;
58928;SDS011;44713;53.378;10.022;2023-04-24T08:41:36;6.45;;;4.97;;
58928;SDS011;44713;53.378;10.022;2023-04-24T08:44:03;6.20;;;5.60;;
58928;SDS011;44713;53.378;10.022;2023-04-24T08:46:29;7.15;;;5.35;;
58928;SDS011;44713;53.378;10.022;2023-04-24T08:48:55;5.43;;;4.93;;
58928;SDS011;44713;53.378;10.022;2023-04-24T08:51:21;8.07;;;5.45;;
58928;SDS011;44713;53.378;10.022;2023-04-24T08:53:47;5.80;;;5.20;;
58928;SDS011;44713;53.378;10.022;2023-04-24T08:56:13;4.75;;;3.97;;
58928;SDS011;44713;53.378;10.022;2023-04-24T08:58:38;4.82;;;4.30;;
58928;SDS011;44713;53.378;10.022;2023-04-24T09:01:04;5.60;;;4.60;;
58928;SDS011;44713;53.378;10.022;2023-04-24T09:03:30;4.53;;;4.00;;
58928;SDS011;44713;53.378;10.022;2023-04-24T09:05:56;4.90;;;4.45;;
58928;SDS011;44713;53.378;10.022;2023-04-24T09:08:23;5.93;;;4.50;;
58928;SDS011;44713;53.378;10.022;2023-04-24T09:10:51;6.32;;;4.53;;
58928;SDS011;44713;53.378;10.022;2023-04-24T09:13:16;8.50;;;4.80;;
58928;SDS011;44713;53.378;10.022;2023-04-24T09:15:44;6.63;;;4.75;;
58928;SDS011;44713;53.378;10.022;2023-04-24T09:18:09;5.78;;;4.90;;
58928;SDS011;44713;53.378;10.022;2023-04-24T09:20:35;5.40;;;4.38;;
58928;SDS011;44713;53.378;10.022;2023-04-24T09:23:29;5.90;;;5.25;;
58928;SDS011;44713;53.378;10.022;2023-04-24T09:25:55;7.30;;;4.78;;
58928;SDS011;44713;53.378;10.022;2023-04-24T09:28:25;4.65;;;4.25;;
58928;SDS011;44713;53.378;10.022;2023-04-24T09:31:04;5.75;;;4.20;;
58928;SDS011;44713;53.378;10.022;2023-04-24T09:33:30;7.45;;;4.88;;
58928;SDS011;44713;53.378;10.022;2023-04-24T09:35:56;5.25;;;4.40;;
58928;SDS011;44713;53.378;10.022;2023-04-24T09:38:30;5.78;;;4.53;;
58928;SDS011;44713;53.378;10.022;2023-04-24T09:41:00;5.90;;;5.13;;
58928;SDS011;44713;53.378;10.022;2023-04-24T09:43:28;13.40;;;6.40;;
58928;SDS011;44713;53.378;10.022;2023-04-24T09:45:55;6.38;;;5.28;;
58928;SDS011;44713;53.378;10.022;2023-04-24T09:48:29;6.57;;;5.22;;
58928;SDS011;44713;53.378;10.022;2023-04-24T09:50:59;6.63;;;5.25;;
58928;SDS011;44713;53.378;10.022;2023-04-24T09:53:27;7.43;;;6.70;;
58928;SDS011;44713;53.378;10.022;2023-04-24T09:55:52;10.45;;;7.57;;
58928;SDS011;44713;53.378;10.022;2023-04-24T09:58:18;8.13;;;7.10;;
58928;SDS011;44713;53.378;10.022;2023-04-24T10:00:49;8.98;;;6.55;;
58928;SDS011;44713;53.378;10.022;2023-04-24T10:03:18;11.70;;;6.50;;
58928;SDS011;44713;53.378;10.022;2023-04-24T10:05:44;8.32;;;6.10;;
58928;SDS011;44713;53.378;10.022;2023-04-24T10:08:11;7.40;;;6.70;;
58928;SDS011;44713;53.378;10.022;2023-04-24T10:10:41;10.20;;;6.85;;
58928;SDS011;44713;53.378;10.022;2023-04-24T10:13:11;7.95;;;6.80;;
58928;SDS011;44713;53.378;10.022;2023-04-24T10:15:39;8.80;;;6.90;;
58928;SDS011;44713;53.378;10.022;2023-04-24T10:18:06;9.07;;;7.15;;
58928;SDS011;44713;53.378;10.022;2023-04-24T10:20:36;10.50;;;8.27;;
58928;SDS011;44713;53.378;10.022;2023-04-24T10:23:02;9.10;;;8.20;;
58928;SDS011;44713;53.378;10.022;2023-04-24T10:25:29;9.27;;;7.78;;
58928;SDS011;44713;53.378;10.022;2023-04-24T10:27:56;9.90;;;8.10;;
58928;SDS011;44713;53.378;10.022;2023-04-24T10:30:26;10.93;;;7.53;;
58928;SDS011;44713;53.378;10.022;2023-04-24T10:32:52;10.43;;;8.70;;
58928;SDS011;44713;53.378;10.022;2023-04-24T10:35:18;13.55;;;8.90;;
58928;SDS011;44713;53.378;10.022;2023-04-24T10:37:51;10.20;;;8.88;;
58928;SDS011;44713;53.378;10.022;2023-04-24T10:40:31;14.77;;;8.77;;
58928;SDS011;44713;53.378;10.022;2023-04-24T10:43:04;11.80;;;9.25;;
58928;SDS011;44713;53.378;10.022;2023-04-24T10:45:33;10.50;;;8.82;;
58928;SDS011;44713;53.378;10.022;2023-04-24T10:47:59;10.90;;;8.80;;
58928;SDS011;44713;53.378;10.022;2023-04-24T10:50:27;11.13;;;8.15;;
58928;SDS011;44713;53.378;10.022;2023-04-24T10:53:17;11.15;;;8.65;;
58928;SDS011;44713;53.378;10.022;2023-04-24T10:55:48;12.65;;;7.78;;
58928;SDS011;44713;53.378;10.022;2023-04-24T10:58:15;9.82;;;7.65;;
58928;SDS011;44713;53.378;10.022;2023-04-24T11:00:42;14.02;;;7.60;;
58928;SDS011;44713;53.378;10.022;2023-04-24T11:03:24;10.32;;;8.40;;
58928;SDS011;44713;53.378;10.022;2023-04-24T11:05:58;11.15;;;7.72;;
58928;SDS011;44713;53.378;10.022;2023-04-24T11:08:27;7.85;;;7.10;;
58928;SDS011;44713;53.378;10.022;2023-04-24T11:10:58;9.98;;;7.28;;
58928;SDS011;44713;53.378;10.022;2023-04-24T11:13:27;8.93;;;7.35;;
58928;SDS011;44713;53.378;10.022;2023-04-24T11:16:14;7.20;;;6.45;;
58928;SDS011;44713;53.378;10.022;2023-04-24T11:18:41;6.43;;;5.82;;
58928;SDS011;44713;53.378;10.022;2023-04-24T11:21:18;6.30;;;5.68;;
58928;SDS011;44713;53.378;10.022;2023-04-24T11:23:44;10.60;;;6.38;;
58928;SDS011;44713;53.378;10.022;2023-04-24T11:26:17;8.00;;;6.43;;
58928;SDS011;44713;53.378;10.022;2023-04-24T11:28:44;6.57;;;5.93;;
58928;SDS011;44713;53.378;10.022;2023-04-24T11:34:10;8.20;;;6.50;;
58928;SDS011;44713;53.378;10.022;2023-04-24T11:36:38;8.77;;;6.28;;
58928;SDS011;44713;53.378;10.022;2023-04-24T11:39:03;6.88;;;6.00;;
58928;SDS011;44713;53.378;10.022;2023-04-24T11:41:30;7.32;;;5.82;;
58928;SDS011;44713;53.378;10.022;2023-04-24T11:43:56;7.60;;;5.88;;
58928;SDS011;44713;53.378;10.022;2023-04-24T11:46:22;5.95;;;5.45;;
58928;SDS011;44713;53.378;10.022;2023-04-24T11:48:47;5.93;;;4.80;;
58928;SDS011;44713;53.378;10.022;2023-04-24T11:51:13;4.95;;;4.45;;
58928;SDS011;44713;53.378;10.022;2023-04-24T11:53:39;6.15;;;4.50;;
58928;SDS011;44713;53.378;10.022;2023-04-24T11:56:04;6.43;;;4.70;;
58928;SDS011;44713;53.378;10.022;2023-04-24T11:58:37;5.15;;;4.65;;
58928;SDS011;44713;53.378;10.022;2023-04-24T12:01:04;5.82;;;4.45;;
58928;SDS011;44713;53.378;10.022;2023-04-24T12:03:30;5.57;;;4.10;;
58928;SDS011;44713;53.378;10.022;2023-04-24T12:06:09;5.25;;;4.20;;
58928;SDS011;44713;53.378;10.022;2023-04-24T12:08:36;5.07;;;4.50;;
58928;SDS011;44713;53.378;10.022;2023-04-24T12:11:02;4.80;;;3.72;;
58928;SDS011;44713;53.378;10.022;2023-04-24T12:13:29;5.22;;;3.67;;
58928;SDS011;44713;53.378;10.022;2023-04-24T12:15:54;4.60;;;4.20;;
58928;SDS011;44713;53.378;10.022;2023-04-24T12:18:23;4.10;;;3.70;;
58928;SDS011;44713;53.378;10.022;2023-04-24T12:20:49;4.97;;;3.78;;
58928;SDS011;44713;53.378;10.022;2023-04-24T12:23:15;4.93;;;3.97;;
58928;SDS011;44713;53.378;10.022;2023-04-24T12:25:40;4.07;;;3.67;;
58928;SDS011;44713;53.378;10.022;2023-04-24T12:30:39;3.55;;;3.22;;
58928;SDS011;44713;53.378;10.022;2023-04-24T12:33:09;4.22;;;3.22;;
58928;SDS011;44713;53.378;10.022;2023-04-24T12:35:34;6.57;;;3.50;;
58928;SDS011;44713;53.378;10.022;2023-04-24T12:38:10;3.30;;;3.00;;
58928;SDS011;44713;53.378;10.022;2023-04-24T12:40:38;5.32;;;3.00;;
58928;SDS011;44713;53.378;10.022;2023-04-24T12:43:13;4.88;;;3.00;;
58928;SDS011;44713;53.378;10.022;2023-04-24T12:45:39;3.28;;;2.97;;
58928;SDS011;44713;53.378;10.022;2023-04-24T12:48:04;4.47;;;3.22;;
58928;SDS011;44713;53.378;10.022;2023-04-24T12:50:30;5.63;;;2.85;;
58928;SDS011;44713;53.378;10.022;2023-04-24T12:52:55;3.72;;;2.80;;
58928;SDS011;44713;53.378;10.022;2023-04-24T12:55:20;3.90;;;2.72;;
58928;SDS011;44713;53.378;10.022;2023-04-24T12:57:46;3.50;;;3.00;;
58928;SDS011;44713;53.378;10.022;2023-04-24T13:00:11;3.50;;;3.20;;
58928;SDS011;44713;53.378;10.022;2023-04-24T13:02:37;3.80;;;3.00;;
58928;SDS011;44713;53.378;10.022;2023-04-24T13:05:03;3.67;;;2.63;;
58928;SDS011;44713;53.378;10.022;2023-04-24T13:07:29;3.63;;;2.80;;
58928;SDS011;44713;53.378;10.022;2023-04-24T13:09:55;3.20;;;2.88;;
58928;SDS011;44713;53.378;10.022;2023-04-24T13:12:21;3.38;;;2.75;;
58928;SDS011;44713;53.378;10.022;2023-04-24T13:14:48;4.00;;;2.75;;
58928;SDS011;44713;53.378;10.022;2023-04-24T13:17:14;2.38;;;2.15;;
58928;SDS011;44713;53.378;10.022;2023-04-24T13:19:40;2.67;;;2.28;;
58928;SDS011;44713;53.378;10.022;2023-04-24T13:22:08;2.45;;;2.15;;
58928;SDS011;44713;53.378;10.022;2023-04-24T13:24:35;3.38;;;2.20;;
58928;SDS011;44713;53.378;10.022;2023-04-24T13:27:00;3.78;;;2.50;;
58928;SDS011;44713;53.378;10.022;2023-04-24T13:29:26;2.63;;;2.40;;
58928;SDS011;44713;53.378;10.022;2023-04-24T13:31:52;2.50;;;2.30;;
58928;SDS011;44713;53.378;10.022;2023-04-24T13:34:27;2.40;;;2.20;;
58928;SDS011;44713;53.378;10.022;2023-04-24T13:36:53;3.10;;;2.63;;
58928;SDS011;44713;53.378;10.022;2023-04-24T13:39:20;3.22;;;2.20;;
58928;SDS011;44713;53.378;10.022;2023-04-24T13:41:46;2.53;;;1.90;;
58928;SDS011;44713;53.378;10.022;2023-04-24T13:44:13;6.18;;;2.45;;
58928;SDS011;44713;53.378;10.022;2023-04-24T13:46:39;4.38;;;2.95;;
58928;SDS011;44713;53.378;10.022;2023-04-24T13:49:04;3.60;;;2.55;;
58928;SDS011;44713;53.378;10.022;2023-04-24T13:51:30;3.33;;;3.00;;
58928;SDS011;44713;53.378;10.022;2023-04-24T13:53:55;3.70;;;2.95;;
58928;SDS011;44713;53.378;10.022;2023-04-24T13:56:21;3.20;;;2.90;;
58928;SDS011;44713;53.378;10.022;2023-04-24T13:58:47;3.45;;;3.15;;
58928;SDS011;44713;53.378;10.022;2023-04-24T14:01:13;3.08;;;2.78;;
58928;SDS011;44713;53.378;10.022;2023-04-24T14:03:40;3.10;;;2.80;;
58928;SDS011;44713;53.378;10.022;2023-04-24T14:06:06;2.80;;;2.60;;
58928;SDS011;44713;53.378;10.022;2023-04-24T14:08:31;2.88;;;2.67;;
58928;SDS011;44713;53.378;10.022;2023-04-24T14:10:57;3.25;;;2.92;;
58928;SDS011;44713;53.378;10.022;2023-04-24T14:13:22;2.75;;;2.53;;
58928;SDS011;44713;53.378;10.022;2023-04-24T14:15:48;3.25;;;2.80;;
58928;SDS011;44713;53.378;10.022;2023-04-24T14:18:13;3.20;;;2.90;;
58928;SDS011;44713;53.378;10.022;2023-04-24T14:20:39;3.08;;;2.78;;
58928;SDS011;44713;53.378;10.022;2023-04-24T14:23:04;2.72;;;2.53;;
58928;SDS011;44713;53.378;10.022;2023-04-24T14:25:30;2.60;;;2.40;;
58928;SDS011;44713;53.378;10.022;2023-04-24T14:27:55;2.80;;;2.47;;
58928;SDS011;44713;53.378;10.022;2023-04-24T14:30:21;3.78;;;2.25;;
58928;SDS011;44713;53.378;10.022;2023-04-24T14:32:47;3.10;;;2.05;;
58928;SDS011;44713;53.378;10.022;2023-04-24T14:35:12;2.47;;;2.03;;
58928;SDS011;44713;53.378;10.022;2023-04-24T14:37:39;3.80;;;1.92;;
58928;SDS011;44713;53.378;10.022;2023-04-24T14:40:06;1.80;;;1.70;;
58928;SDS011;44713;53.378;10.022;2023-04-24T14:42:32;2.47;;;1.95;;